Levels, West Virginia
Current Conditions -  °F | °C
As of 7:39 PM on Sunday 21 Dec 2014 (Local Time) from KCBE Reporting Station
Clear Clear  
Wind Chill: 34°   Ceiling: Unl
Heat Index: 34°   Visibility: 10mi
Dew Point: 25°   Wind: 3mph
Humidity: 70%   Direction: 320°NW
Pressure: 30.31"   Gusts: NA
Location:  39.48°N, 78.55°W
Report Text: KCBE 220039Z AUTO 32003KT 10SM CLR 01/M04 A3031 RMK AO1
Loading
Personal Weather Stations






























Interactive Weather Map New forecast layout! Learn more

10-Day Weather Forecast

Advertisements
Track Severe Weather on mobile